sensor_id;sensor_type;location;lat;lon;timestamp;P1;durP1;ratioP1;P2;durP2;ratioP2
26177;SDS011;13924;47.670;10.310;2023-05-18T00:00:48;13.5;;;7.9;;
26177;SDS011;13924;47.670;10.310;2023-05-18T00:15:49;13.9;;;7.7;;
26177;SDS011;13924;47.670;10.310;2023-05-18T00:30:49;8.8;;;6.9;;
26177;SDS011;13924;47.670;10.310;2023-05-18T00:45:52;12.9;;;7.5;;
26177;SDS011;13924;47.670;10.310;2023-05-18T01:01:00;14.3;;;7.9;;
26177;SDS011;13924;47.670;10.310;2023-05-18T01:15:54;10.4;;;6.7;;
26177;SDS011;13924;47.670;10.310;2023-05-18T01:30:52;12.4;;;7.8;;
26177;SDS011;13924;47.670;10.310;2023-05-18T01:45:54;17.1;;;10.9;;
26177;SDS011;13924;47.670;10.310;2023-05-18T02:00:54;20.4;;;13.1;;
26177;SDS011;13924;47.670;10.310;2023-05-18T02:15:53;19.9;;;10.8;;
26177;SDS011;13924;47.670;10.310;2023-05-18T02:31:03;15.8;;;9.1;;
26177;SDS011;13924;47.670;10.310;2023-05-18T02:45:55;14.5;;;8.5;;
26177;SDS011;13924;47.670;10.310;2023-05-18T03:00:58;14.7;;;9.2;;
26177;SDS011;13924;47.670;10.310;2023-05-18T03:15:56;15.8;;;9.3;;
26177;SDS011;13924;47.670;10.310;2023-05-18T03:30:29;19.1;;;9.6;;
26177;SDS011;13924;47.670;10.310;2023-05-18T03:45:28;17.1;;;10.2;;
26177;SDS011;13924;47.670;10.310;2023-05-18T04:00:30;15.4;;;10.5;;
26177;SDS011;13924;47.670;10.310;2023-05-18T04:15:30;22.2;;;12.0;;
26177;SDS011;13924;47.670;10.310;2023-05-18T04:30:32;23.4;;;12.2;;
26177;SDS011;13924;47.670;10.310;2023-05-18T04:45:32;23.9;;;13.6;;
26177;SDS011;13924;47.670;10.310;2023-05-18T05:00:33;16.4;;;12.7;;
26177;SDS011;13924;47.670;10.310;2023-05-18T05:15:36;18.3;;;13.0;;
26177;SDS011;13924;47.670;10.310;2023-05-18T05:30:34;22.4;;;13.7;;
26177;SDS011;13924;47.670;10.310;2023-05-18T05:45:35;17.2;;;13.2;;
26177;SDS011;13924;47.670;10.310;2023-05-18T06:00:36;21.2;;;12.1;;
26177;SDS011;13924;47.670;10.310;2023-05-18T06:15:36;17.7;;;11.7;;
26177;SDS011;13924;47.670;10.310;2023-05-18T06:30:37;18.3;;;12.2;;
26177;SDS011;13924;47.670;10.310;2023-05-18T06:45:38;16.6;;;11.5;;
26177;SDS011;13924;47.670;10.310;2023-05-18T07:00:38;14.2;;;10.5;;
26177;SDS011;13924;47.670;10.310;2023-05-18T07:15:39;19.1;;;10.6;;
26177;SDS011;13924;47.670;10.310;2023-05-18T07:30:40;15.5;;;10.4;;
26177;SDS011;13924;47.670;10.310;2023-05-18T07:45:40;13.7;;;10.1;;
26177;SDS011;13924;47.670;10.310;2023-05-18T08:00:40;11.5;;;8.0;;
26177;SDS011;13924;47.670;10.310;2023-05-18T08:15:42;10.2;;;6.6;;
26177;SDS011;13924;47.670;10.310;2023-05-18T08:30:42;7.9;;;4.6;;
26177;SDS011;13924;47.670;10.310;2023-05-18T08:45:45;6.6;;;3.4;;
26177;SDS011;13924;47.670;10.310;2023-05-18T09:00:43;6.4;;;3.1;;
26177;SDS011;13924;47.670;10.310;2023-05-18T09:15:44;6.1;;;2.8;;
26177;SDS011;13924;47.670;10.310;2023-05-18T09:30:45;5.5;;;2.9;;
26177;SDS011;13924;47.670;10.310;2023-05-18T09:45:46;7.0;;;2.6;;
26177;SDS011;13924;47.670;10.310;2023-05-18T10:00:47;8.5;;;2.8;;
26177;SDS011;13924;47.670;10.310;2023-05-18T10:15:48;5.1;;;2.8;;
26177;SDS011;13924;47.670;10.310;2023-05-18T10:30:47;3.3;;;2.4;;
26177;SDS011;13924;47.670;10.310;2023-05-18T10:45:50;4.9;;;2.8;;
26177;SDS011;13924;47.670;10.310;2023-05-18T11:00:49;4.6;;;2.8;;
26177;SDS011;13924;47.670;10.310;2023-05-18T11:16:05;7.0;;;2.9;;
26177;SDS011;13924;47.670;10.310;2023-05-18T11:30:50;5.3;;;2.9;;
26177;SDS011;13924;47.670;10.310;2023-05-18T11:45:51;4.3;;;2.8;;
26177;SDS011;13924;47.670;10.310;2023-05-18T12:00:55;5.4;;;3.4;;
26177;SDS011;13924;47.670;10.310;2023-05-18T12:15:56;6.3;;;2.9;;
26177;SDS011;13924;47.670;10.310;2023-05-18T12:30:56;8.1;;;3.7;;
26177;SDS011;13924;47.670;10.310;2023-05-18T12:45:59;5.7;;;3.8;;
26177;SDS011;13924;47.670;10.310;2023-05-18T13:01:06;14.6;;;6.3;;
26177;SDS011;13924;47.670;10.310;2023-05-18T13:15:58;8.6;;;4.8;;
26177;SDS011;13924;47.670;10.310;2023-05-18T13:31:00;6.7;;;3.8;;
26177;SDS011;13924;47.670;10.310;2023-05-18T13:46:03;6.5;;;3.5;;
26177;SDS011;13924;47.670;10.310;2023-05-18T14:01:00;6.0;;;3.6;;
26177;SDS011;13924;47.670;10.310;2023-05-18T14:16:01;6.5;;;3.9;;
26177;SDS011;13924;47.670;10.310;2023-05-18T14:31:01;5.8;;;3.6;;
26177;SDS011;13924;47.670;10.310;2023-05-18T14:46:01;5.4;;;3.9;;
26177;SDS011;13924;47.670;10.310;2023-05-18T15:01:02;7.5;;;4.2;;
26177;SDS011;13924;47.670;10.310;2023-05-18T15:16:04;8.4;;;3.6;;
26177;SDS011;13924;47.670;10.310;2023-05-18T15:31:04;7.7;;;3.4;;
26177;SDS011;13924;47.670;10.310;2023-05-18T15:46:07;6.9;;;4.1;;
26177;SDS011;13924;47.670;10.310;2023-05-18T16:01:05;5.7;;;3.5;;
26177;SDS011;13924;47.670;10.310;2023-05-18T16:16:11;6.9;;;3.8;;
26177;SDS011;13924;47.670;10.310;2023-05-18T16:31:06;7.6;;;3.9;;
26177;SDS011;13924;47.670;10.310;2023-05-18T16:46:07;11.1;;;4.9;;
26177;SDS011;13924;47.670;10.310;2023-05-18T17:01:07;9.0;;;4.9;;
26177;SDS011;13924;47.670;10.310;2023-05-18T17:16:08;8.1;;;4.8;;
26177;SDS011;13924;47.670;10.310;2023-05-18T17:31:18;6.8;;;4.6;;
26177;SDS011;13924;47.670;10.310;2023-05-18T17:46:09;7.5;;;4.2;;
26177;SDS011;13924;47.670;10.310;2023-05-18T18:01:10;7.0;;;4.2;;
26177;SDS011;13924;47.670;10.310;2023-05-18T18:16:15;7.9;;;4.4;;
26177;SDS011;13924;47.670;10.310;2023-05-18T18:31:14;5.1;;;4.3;;
26177;SDS011;13924;47.670;10.310;2023-05-18T18:46:14;6.0;;;4.4;;
26177;SDS011;13924;47.670;10.310;2023-05-18T19:01:16;7.3;;;4.2;;
26177;SDS011;13924;47.670;10.310;2023-05-18T19:16:20;6.3;;;3.9;;
26177;SDS011;13924;47.670;10.310;2023-05-18T19:31:21;5.2;;;4.5;;
26177;SDS011;13924;47.670;10.310;2023-05-18T19:46:17;7.1;;;4.7;;
26177;SDS011;13924;47.670;10.310;2023-05-18T20:01:22;7.7;;;4.8;;
26177;SDS011;13924;47.670;10.310;2023-05-18T20:16:27;4.9;;;4.0;;
26177;SDS011;13924;47.670;10.310;2023-05-18T20:31:20;5.5;;;4.3;;
26177;SDS011;13924;47.670;10.310;2023-05-18T20:46:18;6.2;;;4.2;;
26177;SDS011;13924;47.670;10.310;2023-05-18T21:01:28;5.9;;;3.8;;
26177;SDS011;13924;47.670;10.310;2023-05-18T21:16:20;5.1;;;3.1;;
26177;SDS011;13924;47.670;10.310;2023-05-18T21:31:20;6.3;;;3.3;;
26177;SDS011;13924;47.670;10.310;2023-05-18T21:46:20;6.3;;;3.9;;
26177;SDS011;13924;47.670;10.310;2023-05-18T22:00:37;4.3;;;3.4;;
26177;SDS011;13924;47.670;10.310;2023-05-18T22:15:56;4.8;;;3.5;;
26177;SDS011;13924;47.670;10.310;2023-05-18T22:30:51;3.7;;;3.0;;
26177;SDS011;13924;47.670;10.310;2023-05-18T22:45:47;4.1;;;3.6;;
26177;SDS011;13924;47.670;10.310;2023-05-18T23:00:48;6.3;;;3.5;;
26177;SDS011;13924;47.670;10.310;2023-05-18T23:15:49;4.2;;;3.1;;
26177;SDS011;13924;47.670;10.310;2023-05-18T23:30:50;4.0;;;3.5;;
26177;SDS011;13924;47.670;10.310;2023-05-18T23:45:51;3.4;;;3.1;;
